Time;durP1;ratioP1;P1;durP2;ratioP2;P2;SDS_P1;SDS_P2;PMS_P1;PMS_P2;Temp;Humidity;BMP_temperature;BMP_pressure;BME280_temperature;BME280_humidity;BME280_pressure;Samples;Min_cycle;Max_cycle;Signal;HPM_P1;HPM_P2
2021/12/11 00:01:10;;;;;;;18.23;9.98;;;;;;;;;;5081780;28;20157;-48
2021/12/11 00:03:40;;;;;;;20.38;11.13;;;;;;;;;;5084889;28;20493;-50
2021/12/11 00:06:06;;;;;;;21.42;11.93;;;;;;;;;;5072530;28;20118;-49
2021/12/11 00:08:32;;;;;;;24.63;13.18;;;;;;;;;;5080059;28;20084;-50
2021/12/11 00:11:01;;;;;;;18.75;11.30;;;;;;;;;;5070394;28;20072;-51
2021/12/11 00:13:29;;;;;;;19.08;11.52;;;;;;;;;;5070569;28;20044;-49
2021/12/11 00:15:55;;;;;;;17.98;10.90;;;;;;;;;;5076792;28;20124;-48
2021/12/11 00:18:26;;;;;;;19.08;11.65;;;;;;;;;;5066669;28;20051;-52
2021/12/11 00:21:01;;;;;;;22.75;12.38;;;;;;;;;;5070002;28;20036;-49
2021/12/11 00:23:31;;;;;;;21.40;12.13;;;;;;;;;;5077070;28;20029;-50
2021/12/11 00:25:57;;;;;;;22.23;12.95;;;;;;;;;;5081996;28;20040;-48
2021/12/11 00:28:23;;;;;;;25.58;12.43;;;;;;;;;;5074395;28;20312;-49
2021/12/11 00:30:49;;;;;;;24.08;13.25;;;;;;;;;;5064520;28;20513;-48
2021/12/11 00:33:17;;;;;;;27.88;13.48;;;;;;;;;;5067542;28;20047;-52
2021/12/11 00:35:44;;;;;;;20.45;12.23;;;;;;;;;;5074780;28;20053;-51
2021/12/11 00:38:17;;;;;;;26.30;12.73;;;;;;;;;;5079484;28;20036;-52
2021/12/11 00:40:46;;;;;;;21.02;12.50;;;-2.70;99.90;;;;;;5080758;28;20147;-52
2021/12/11 00:43:17;;;;;;;24.58;12.85;;;;;;;;;;5077741;28;20054;-52
2021/12/11 00:45:44;;;;;;;19.95;12.18;;;;;;;;;;5080152;28;20044;-53
2021/12/11 00:48:12;;;;;;;21.35;12.32;;;;;;;;;;5075244;28;20114;-52
2021/12/11 00:50:40;;;;;;;22.08;13.35;;;;;;;;;;5068762;28;20071;-49
2021/12/11 00:53:10;;;;;;;19.52;11.98;;;;;;;;;;5067524;28;20075;-54
2021/12/11 00:55:38;;;;;;;23.40;13.00;;;;;;;;;;5075085;28;20036;-48
2021/12/11 00:58:10;;;;;;;19.83;12.23;;;;;;;;;;5074166;28;20128;-51
2021/12/11 01:00:39;;;;;;;19.27;11.82;;;;;;;;;;5074886;28;20646;-48
2021/12/11 01:03:05;;;;;;;23.80;12.25;;;;;;;;;;5068402;28;20592;-49
2021/12/11 01:05:37;;;;;;;22.75;11.75;;;;;;;;;;5082047;28;20397;-51
2021/12/11 01:08:12;;;;;;;23.33;14.15;;;;;;;;;;5066689;28;20064;-49
2021/12/11 01:10:38;;;;;;;19.58;12.23;;;;;;;;;;5067478;28;20040;-51
2021/12/11 01:13:05;;;;;;;20.75;12.43;;;;;;;;;;5076077;28;20521;-52
2021/12/11 01:15:44;;;;;;;23.10;13.18;;;;;;;;;;5074307;28;20040;-52
2021/12/11 01:21:01;;;;;;;24.20;13.00;;;;;;;;;;5069134;28;20040;-50
2021/12/11 01:23:47;;;;;;;21.90;13.18;;;;;;;;;;5081096;28;20524;-50
2021/12/11 01:26:15;;;;;;;25.95;14.85;;;;;;;;;;5077929;28;20043;-49
2021/12/11 01:28:42;;;;;;;29.40;14.85;;;;;;;;;;5073403;28;20052;-49
2021/12/11 01:31:09;;;;;;;23.25;13.43;;;;;;;;;;5072752;28;20059;-50
2021/12/11 01:33:36;;;;;;;32.72;16.23;;;;;;;;;;5071134;28;20562;-53
2021/12/11 01:36:04;;;;;;;26.10;14.95;;;;;;;;;;5073071;28;20041;-52
2021/12/11 01:38:30;;;;;;;28.25;14.95;;;;;;;;;;5073155;28;20040;-50
2021/12/11 01:40:58;;;;;;;27.13;14.10;;;;;;;;;;5072436;28;20325;-52
2021/12/11 01:43:27;;;;;;;28.13;17.30;;;;;;;;;;5074509;28;20511;-49
2021/12/11 01:45:54;;;;;;;25.42;14.13;;;;;;;;;;5071388;28;20246;-49
2021/12/11 01:48:22;;;;;;;27.67;14.63;;;;;;;;;;5068472;28;20041;-52
2021/12/11 01:50:51;;;;;;;23.30;13.70;;;;;;;;;;5063575;28;20636;-49
2021/12/11 01:53:19;;;;;;;23.25;13.73;;;;;;;;;;5063957;28;20127;-49
2021/12/11 01:55:48;;;;;;;23.60;13.43;;;;;;;;;;5069522;28;20034;-50
2021/12/11 01:58:16;;;;;;;25.00;15.48;;;;;;;;;;5073866;28;20051;-49
2021/12/11 02:00:45;;;;;;;23.67;14.20;;;;;;;;;;5067878;28;20044;-49
2021/12/11 02:03:17;;;;;;;26.88;15.40;;;;;;;;;;5067521;28;20051;-51
2021/12/11 02:05:43;;;;;;;21.85;13.65;;;;;;;;;;5072461;28;20123;-50
2021/12/11 02:08:13;;;;;;;26.20;13.82;;;;;;;;;;5073288;28;20072;-50
2021/12/11 02:10:43;;;;;;;22.73;13.88;;;;;;;;;;5082618;28;20097;-49
2021/12/11 02:13:11;;;;;;;21.15;13.20;;;;;;;;;;5079202;28;20040;-50
2021/12/11 02:15:46;;;;;;;24.08;13.00;;;;;;;;;;5075376;28;20784;-49
2021/12/11 02:18:15;;;;;;;20.95;12.13;;;;;;;;;;5068714;28;20049;-51
2021/12/11 02:20:44;;;;;;;24.25;13.55;;;;;;;;;;5072500;28;20044;-51
2021/12/11 02:23:12;;;;;;;20.92;12.35;;;;;;;;;;5071180;28;20109;-48
2021/12/11 02:25:40;;;;;;;21.75;13.18;;;;;;;;;;5061875;28;20036;-51
2021/12/11 02:28:12;;;;;;;20.63;12.07;;;;;;;;;;5072083;28;20504;-50
2021/12/11 02:30:47;;;;;;;19.38;13.23;;;;;;;;;;5064051;28;20040;-50
2021/12/11 02:33:19;;;;;;;22.73;13.20;;;;;;;;;;5070098;28;20425;-49
2021/12/11 02:35:48;;;;;;;22.48;13.10;;;;;;;;;;5063606;28;20056;-51
2021/12/11 02:38:21;;;;;;;22.58;13.18;;;;;;;;;;5071365;28;20044;-48
2021/12/11 02:40:55;;;;;;;19.42;12.75;;;;;;;;;;5073872;28;20040;-50
2021/12/11 02:43:21;;;;;;;24.83;13.15;;;;;;;;;;5065504;28;20169;-50
2021/12/11 02:46:09;;;;;;;23.23;12.85;;;;;;;;;;5081425;28;20048;-50
2021/12/11 02:48:44;;;;;;;26.67;14.75;;;;;;;;;;5065447;28;20071;-48
2021/12/11 02:51:12;;;;;;;25.02;15.02;;;;;;;;;;5076562;28;20038;-50
2021/12/11 02:53:51;;;;;;;25.35;14.43;;;;;;;;;;5079418;28;20047;-51
2021/12/11 02:56:43;;;;;;;28.00;15.15;;;;;;;;;;5075352;28;20048;-53
2021/12/11 02:59:11;;;;;;;;;;;;;;;;;;5066040;28;20062;-50
2021/12/11 03:01:40;;;;;;;27.65;13.05;;;;;;;;;;5081833;28;20388;-50
2021/12/11 03:04:19;;;;;;;19.98;12.25;;;;;;;;;;5082197;28;20575;-49
2021/12/11 03:06:49;;;;;;;25.15;13.57;;;-2.90;99.90;;;;;;5077656;28;20056;-51
2021/12/11 03:09:17;;;;;;;18.73;11.35;;;;;;;;;;5068084;28;20037;-53
2021/12/11 03:11:46;;;;;;;23.95;12.98;;;-2.70;99.90;;;;;;5068707;28;20125;-52
2021/12/11 03:14:14;;;;;;;23.15;12.15;;;;;;;;;;5071573;28;20047;-50
2021/12/11 03:16:41;;;;;;;23.45;14.30;;;;;;;;;;5079735;28;20036;-51
2021/12/11 03:19:09;;;;;;;22.77;13.23;;;;;;;;;;5065256;28;20123;-52
2021/12/11 03:21:36;;;;;;;24.63;15.00;;;;;;;;;;5067126;28;20047;-49
2021/12/11 03:24:03;;;;;;;21.92;13.52;;;;;;;;;;5072651;28;20047;-53
2021/12/11 03:26:31;;;;;;;21.42;13.13;;;;;;;;;;5076860;28;20039;-48
2021/12/11 03:28:57;;;;;;;21.33;11.35;;;;;;;;;;5074296;28;20428;-52
2021/12/11 03:31:24;;;;;;;24.73;12.98;;;;;;;;;;5065911;28;20041;-49
2021/12/11 03:33:52;;;;;;;19.92;12.95;;;;;;;;;;5070612;28;20047;-49
2021/12/11 03:36:20;;;;;;;19.77;12.35;;;;;;;;;;5079424;28;20518;-48
2021/12/11 03:38:48;;;;;;;25.75;13.15;;;;;;;;;;5067370;28;20036;-53
2021/12/11 03:41:15;;;;;;;19.42;11.27;;;;;;;;;;5079976;28;20036;-51
2021/12/11 03:43:42;;;;;;;20.25;11.85;;;;;;;;;;5067704;28;20155;-49
2021/12/11 03:46:09;;;;;;;21.85;13.27;;;;;;;;;;5075207;28;20048;-53
2021/12/11 03:48:37;;;;;;;21.55;12.50;;;;;;;;;;5067945;28;20056;-50
2021/12/11 03:51:04;;;;;;;25.27;13.70;;;;;;;;;;5081609;28;20039;-54
2021/12/11 03:53:30;;;;;;;30.38;16.30;;;;;;;;;;5072607;28;20408;-52
2021/12/11 03:55:58;;;;;;;28.60;15.45;;;;;;;;;;5080267;28;20063;-49
2021/12/11 03:58:26;;;;;;;27.02;14.48;;;;;;;;;;5072354;28;20527;-50
2021/12/11 04:00:55;;;;;;;31.60;16.60;;;;;;;;;;5077761;28;20048;-49
2021/12/11 04:03:23;;;;;;;33.85;18.02;;;;;;;;;;5080554;28;20044;-53
2021/12/11 04:05:51;;;;;;;32.47;18.45;;;;;;;;;;5078354;28;20071;-48
2021/12/11 04:08:19;;;;;;;36.28;19.13;;;;;;;;;;5079293;28;20036;-52
2021/12/11 04:10:46;;;;;;;50.38;23.15;;;;;;;;;;5082485;28;20067;-50
2021/12/11 04:13:14;;;;;;;45.20;24.05;;;;;;;;;;5074950;28;20127;-50
2021/12/11 04:15:41;;;;;;;38.83;20.92;;;;;;;;;;5075241;28;20147;-49
2021/12/11 04:18:08;;;;;;;39.80;20.83;;;;;;;;;;5074168;28;20048;-49
2021/12/11 04:20:37;;;;;;;43.75;22.52;;;;;;;;;;5069757;28;20675;-50
2021/12/11 04:23:04;;;;;;;42.35;21.08;;;;;;;;;;5073458;28;20047;-49
2021/12/11 04:25:31;;;;;;;42.90;21.27;;;;;;;;;;5072274;28;20075;-51
2021/12/11 04:27:59;;;;;;;43.13;22.23;;;-2.30;99.90;;;;;;5070737;28;20044;-48
2021/12/11 04:30:26;;;;;;;38.58;21.42;;;;;;;;;;5075139;28;20040;-51
2021/12/11 04:32:53;;;;;;;42.10;21.42;;;;;;;;;;5067429;28;20040;-50
2021/12/11 04:35:21;;;;;;;44.33;21.58;;;;;;;;;;5069812;28;20059;-48
2021/12/11 04:37:47;;;;;;;36.22;20.63;;;;;;;;;;5075052;28;20098;-51
2021/12/11 04:40:17;;;;;;;38.92;20.70;;;;;;;;;;5079345;28;20438;-52
2021/12/11 04:45:26;;;;;;;43.10;20.20;;;;;;;;;;5078273;28;20067;-50
2021/12/11 04:47:59;;;;;;;35.17;20.10;;;;;;;;;;5068349;28;20324;-49
2021/12/11 04:50:38;;;;;;;36.72;21.50;;;;;;;;;;5069257;28;20151;-54
2021/12/11 04:53:18;;;;;;;39.90;19.77;;;;;;;;;;5074097;28;20082;-54
2021/12/11 04:56:25;;;;;;;34.70;18.92;;;;;;;;;;5076323;28;20097;-52
2021/12/11 04:59:28;;;;;;;31.98;17.50;;;;;;;;;;5073004;28;20079;-51
2021/12/11 05:07:00;;;;;;;30.95;17.13;;;;;;;;;;5074657;28;20047;-54
2021/12/11 05:12:11;;;;;;;28.83;15.60;;;;;;;;;;5075717;28;20044;-53
2021/12/11 05:14:38;;;;;;;30.50;17.38;;;;;;;;;;5071954;28;20404;-50
2021/12/11 05:17:06;;;;;;;29.17;17.48;;;;;;;;;;5075740;28;20378;-52
2021/12/11 05:19:32;;;;;;;29.30;17.42;;;;;;;;;;5072068;28;20456;-53
2021/12/11 05:21:59;;;;;;;33.25;16.30;;;;;;;;;;5074181;28;20048;-50
2021/12/11 05:24:27;;;;;;;27.95;15.75;;;;;;;;;;5078761;28;20074;-48
2021/12/11 05:26:53;;;;;;;29.00;15.77;;;;;;;;;;5078424;28;20037;-54
2021/12/11 05:29:19;;;;;;;28.00;15.60;;;;;;;;;;5072612;28;20049;-51
2021/12/11 05:31:48;;;;;;;26.38;15.18;;;;;;;;;;5076527;28;20077;-52
2021/12/11 05:34:14;;;;;;;25.95;15.10;;;;;;;;;;5069054;28;20313;-50
2021/12/11 05:36:40;;;;;;;29.35;16.55;;;;;;;;;;5078996;28;20036;-49
2021/12/11 05:39:16;;;;;;;32.05;17.38;;;;;;;;;;5076344;28;20044;-48
2021/12/11 05:41:43;;;;;;;27.45;15.85;;;;;;;;;;5070878;28;20074;-51
2021/12/11 05:44:10;;;;;;;27.10;16.20;;;;;;;;;;5081365;28;20110;-50
2021/12/11 05:46:36;;;;;;;26.23;16.10;;;;;;;;;;5082145;28;20131;-52
2021/12/11 05:49:04;;;;;;;27.92;15.18;;;;;;;;;;5069993;28;20083;-50
2021/12/11 05:51:37;;;;;;;29.13;17.15;;;;;;;;;;5081824;28;20521;-50
2021/12/11 05:54:03;;;;;;;23.00;13.95;;;;;;;;;;5070520;28;20033;-50
2021/12/11 05:56:34;;;;;;;25.52;15.63;;;;;;;;;;5079221;28;20040;-49
2021/12/11 05:59:01;;;;;;;30.48;17.02;;;;;;;;;;5069175;28;20101;-49
2021/12/11 06:01:47;;;;;;;30.08;16.35;;;;;;;;;;5082257;28;20464;-50
2021/12/11 06:04:17;;;;;;;24.92;14.38;;;;;;;;;;5072352;28;20047;-49
2021/12/11 06:06:43;;;;;;;32.75;16.60;;;;;;;;;;5079971;28;20036;-50
2021/12/11 06:09:11;;;;;;;28.88;16.27;;;;;;;;;;5080692;28;20543;-49
2021/12/11 06:11:38;;;;;;;30.55;17.02;;;;;;;;;;5073576;28;20451;-49
2021/12/11 06:14:04;;;;;;;28.95;16.80;;;;;;;;;;5067478;28;20097;-51
2021/12/11 06:16:30;;;;;;;30.02;17.98;;;;;;;;;;5065897;28;20038;-52
2021/12/11 06:19:02;;;;;;;34.10;17.65;;;;;;;;;;5073857;28;20485;-49
2021/12/11 06:21:28;;;;;;;35.33;17.85;;;;;;;;;;5064274;28;20040;-51
2021/12/11 06:23:54;;;;;;;30.58;17.83;;;;;;;;;;5083214;28;20036;-51
2021/12/11 06:26:20;;;;;;;34.65;17.23;;;;;;;;;;5082464;28;20039;-49
2021/12/11 06:28:47;;;;;;;32.25;16.70;;;;;;;;;;5079846;28;20036;-49
2021/12/11 06:31:18;;;;;;;33.78;17.73;;;;;;;;;;5071106;28;20550;-50
2021/12/11 06:33:45;;;;;;;42.50;22.87;;;;;;;;;;5066923;28;20048;-51
2021/12/11 06:36:11;;;;;;;36.15;20.25;;;;;;;;;;5070981;28;20116;-51
2021/12/11 06:38:38;;;;;;;34.85;18.73;;;;;;;;;;5075495;28;20119;-54
2021/12/11 06:41:06;;;;;;;31.98;18.33;;;;;;;;;;5063689;28;20037;-54
2021/12/11 06:43:34;;;;;;;32.42;17.20;;;;;;;;;;5067506;28;20440;-50
2021/12/11 06:46:00;;;;;;;35.90;20.30;;;;;;;;;;5069418;28;20052;-50
2021/12/11 06:48:26;;;;;;;34.10;20.50;;;;;;;;;;5077109;28;20044;-50
2021/12/11 06:50:53;;;;;;;30.25;18.15;;;;;;;;;;5073031;28;20044;-49
2021/12/11 06:53:27;;;;;;;33.25;17.30;;;;;;;;;;5077239;28;20131;-50
2021/12/11 06:55:53;;;;;;;28.40;17.10;;;;;;;;;;5077992;28;20097;-48
2021/12/11 06:58:19;;;;;;;31.70;17.25;;;;;;;;;;5077129;28;20591;-49
2021/12/11 07:00:47;;;;;;;31.75;18.10;;;;;;;;;;5082181;28;20125;-53
2021/12/11 07:03:13;;;;;;;33.20;18.50;;;;;;;;;;5071670;28;20075;-52
2021/12/11 07:05:40;;;;;;;33.03;19.63;;;;;;;;;;5076487;28;20040;-48
2021/12/11 07:08:08;;;;;;;33.55;19.20;;;;;;;;;;5069790;28;20033;-51
2021/12/11 07:10:34;;;;;;;36.08;20.00;;;;;;;;;;5078265;28;20775;-52
2021/12/11 07:13:01;;;;;;;34.65;19.00;;;;;;;;;;5066691;28;20474;-51
2021/12/11 07:15:27;;;;;;;37.80;19.45;;;;;;;;;;5067245;28;20454;-54
2021/12/11 07:17:53;;;;;;;34.30;18.67;;;;;;;;;;5074752;28;20080;-50
2021/12/11 07:20:19;;;;;;;35.70;19.65;;;;;;;;;;5082483;28;20047;-50
2021/12/11 07:22:45;;;;;;;37.97;20.30;;;;;;;;;;5078893;28;20517;-53
2021/12/11 07:25:26;;;;;;;34.45;19.67;;;;;;;;;;5073924;28;20140;-51
2021/12/11 07:27:54;;;;;;;41.03;19.52;;;;;;;;;;5075989;28;20051;-49
2021/12/11 07:30:20;;;;;;;43.35;20.60;;;;;;;;;;5074500;28;20136;-51
2021/12/11 07:32:46;;;;;;;34.63;19.17;;;;;;;;;;5085738;28;20036;-51
2021/12/11 07:35:12;;;;;;;39.78;21.40;;;;;;;;;;5070072;28;20037;-48
2021/12/11 07:37:39;;;;;;;38.25;21.58;;;;;;;;;;5074110;28;20029;-50
2021/12/11 07:40:07;;;;;;;38.17;21.08;;;;;;;;;;5080158;28;20040;-50
2021/12/11 07:42:33;;;;;;;42.22;21.45;;;;;;;;;;5086190;28;20125;-50
2021/12/11 07:44:59;;;;;;;35.17;21.35;;;;;;;;;;5069492;28;20040;-49
2021/12/11 07:47:25;;;;;;;39.13;21.00;;;;;;;;;;5075110;28;20132;-50
2021/12/11 07:49:51;;;;;;;38.45;19.98;;;;;;;;;;5078401;28;20049;-54
2021/12/11 07:52:17;;;;;;;33.20;20.70;;;;;;;;;;5077841;28;20048;-53
2021/12/11 07:54:45;;;;;;;36.22;21.67;;;;;;;;;;5063711;28;20036;-53
2021/12/11 07:57:11;;;;;;;41.45;20.92;;;;;;;;;;5067112;28;20041;-50
2021/12/11 07:59:37;;;;;;;35.15;20.15;;;;;;;;;;5079278;28;20071;-49
2021/12/11 08:02:03;;;;;;;36.08;20.60;;;;;;;;;;5069572;28;20037;-49
2021/12/11 08:04:29;;;;;;;39.63;22.63;;;;;;;;;;5080254;28;20154;-47
2021/12/11 08:06:55;;;;;;;38.47;21.08;;;;;;;;;;5073954;28;20040;-49
2021/12/11 08:09:24;;;;;;;41.05;22.15;;;;;;;;;;5071889;28;20123;-54
2021/12/11 08:11:50;;;;;;;42.40;22.25;;;;;;;;;;5077371;28;20060;-47
2021/12/11 08:14:17;;;;;;;40.67;22.55;;;;;;;;;;5075028;28;20059;-49
2021/12/11 08:16:48;;;;;;;44.70;22.92;;;;;;;;;;5077633;28;20551;-48
2021/12/11 08:19:16;;;;;;;45.65;22.98;;;;;;;;;;5075411;28;20450;-49
2021/12/11 08:21:42;;;;;;;50.83;25.75;;;;;;;;;;5073595;28;20036;-49
2021/12/11 08:24:09;;;;;;;40.90;24.10;;;;;;;;;;5074815;28;20029;-49
2021/12/11 08:26:36;;;;;;;39.97;22.92;;;;;;;;;;5076594;28;20682;-49
2021/12/11 08:29:02;;;;;;;42.53;23.63;;;;;;;;;;5079986;28;20035;-49
2021/12/11 08:31:31;;;;;;;44.10;24.58;;;;;;;;;;5073844;28;20042;-53
2021/12/11 08:33:57;;;;;;;37.40;22.13;;;;;;;;;;5075331;28;20123;-50
2021/12/11 08:36:24;;;;;;;43.15;24.02;;;;;;;;;;5072386;28;20035;-52
2021/12/11 08:38:50;;;;;;;38.20;21.52;;;;;;;;;;5068923;28;20509;-53
2021/12/11 08:41:19;;;;;;;37.38;23.02;;;;;;;;;;5071354;28;20048;-48
2021/12/11 08:43:52;;;;;;;39.80;23.38;;;;;;;;;;5072117;28;20040;-53
2021/12/11 08:46:27;;;;;;;46.00;25.52;;;;;;;;;;5074093;28;20558;-48
2021/12/11 08:48:56;;;;;;;43.97;25.63;;;-0.10;99.90;;;;;;5068378;28;20048;-50
2021/12/11 08:51:27;;;;;;;47.85;26.75;;;-0.10;99.90;;;;;;5074688;28;20032;-49
2021/12/11 08:53:54;;;;;;;53.67;28.65;;;;;;;;;;5067791;28;20109;-54
2021/12/11 08:56:20;;;;;;;48.80;28.50;;;;;;;;;;5074864;28;20036;-56
2021/12/11 08:58:48;;;;;;;46.80;26.92;;;0.30;99.90;;;;;;5065684;28;20074;-54
2021/12/11 09:01:19;;;;;;;39.22;25.52;;;0.40;99.90;;;;;;5073487;28;20048;-55
2021/12/11 09:04:03;;;;;;;42.75;25.85;;;0.70;99.90;;;;;;5066831;28;20543;-54
2021/12/11 09:06:37;;;;;;;41.90;26.58;;;1.10;99.90;;;;;;5068285;28;20044;-56
2021/12/11 09:09:18;;;;;;;40.67;25.92;;;0.90;99.90;;;;;;5069319;28;20036;-51
2021/12/11 09:11:50;;;;;;;41.05;26.40;;;1.20;99.90;;;;;;5073057;28;20032;-51
2021/12/11 09:14:16;;;;;;;43.95;25.83;;;;;;;;;;5077105;28;20063;-54
2021/12/11 09:16:47;;;;;;;37.55;23.77;;;0.90;99.90;;;;;;5071728;28;20040;-54
2021/12/11 09:19:19;;;;;;;39.80;25.27;;;1.00;99.90;;;;;;5076634;28;20051;-55
2021/12/11 09:21:45;;;;;;;43.13;26.93;;;;;;;;;;5069999;28;20055;-52
2021/12/11 09:24:38;;;;;;;51.30;28.05;;;1.10;99.90;;;;;;5074737;28;20040;-53
2021/12/11 09:27:04;;;;;;;50.63;28.33;;;;;;;;;;5074022;28;20056;-51
2021/12/11 09:30:00;;;;;;;45.97;27.30;;;2.00;99.90;;;;;;5071402;28;20111;-50
2021/12/11 09:32:35;;;;;;;38.63;25.40;;;2.20;99.90;;;;;;5070341;28;20042;-50
2021/12/11 09:35:21;;;;;;;38.00;25.10;;;2.20;99.90;;;;;;5075785;28;20147;-51
2021/12/11 09:37:49;;;;;;;40.53;26.02;;;2.00;99.90;;;;;;5070502;28;20138;-50
2021/12/11 09:40:39;;;;;;;52.97;26.92;;;1.60;99.90;;;;;;5075707;28;20062;-51
2021/12/11 09:43:05;;;;;;;43.17;25.70;;;;;;;;;;5074911;28;20099;-53
2021/12/11 09:45:41;;;;;;;44.35;25.92;;;1.60;99.90;;;;;;5068913;28;20044;-55
2021/12/11 09:48:15;;;;;;;46.13;27.30;;;1.60;99.90;;;;;;5074026;28;20040;-56
2021/12/11 09:50:53;;;;;;;46.92;27.00;;;1.70;99.90;;;;;;5072309;28;20096;-58
2021/12/11 09:53:23;;;;;;;46.58;27.38;;;2.40;99.90;;;;;;5071294;28;20401;-56
2021/12/11 09:55:51;;;;;;;38.55;27.27;;;2.80;99.90;;;;;;5069812;28;20390;-58
2021/12/11 09:58:21;;;;;;;47.35;27.95;;;3.10;99.90;;;;;;5070853;28;20828;-59
2021/12/11 10:00:47;;;;;;;41.70;26.15;;;;;;;;;;5076148;28;20297;-60
2021/12/11 10:03:16;;;;;;;38.78;25.02;;;3.90;99.90;;;;;;5071066;28;20080;-60
2021/12/11 10:05:55;;;;;;;35.50;25.10;;;3.90;99.90;;;;;;5074401;28;20044;-60
2021/12/11 10:08:36;;;;;;;44.70;26.70;;;3.80;99.90;;;;;;5069851;28;20145;-60
2021/12/11 10:11:02;;;;;;;38.15;25.20;;;;;;;;;;5078151;28;20713;-60
2021/12/11 10:13:30;;;;;;;42.47;25.05;;;3.40;99.90;;;;;;5073300;28;20313;-60
2021/12/11 10:15:57;;;;;;;43.90;24.23;;;;;;;;;;5078537;28;20035;-60
2021/12/11 10:18:25;;;;;;;43.55;24.13;;;2.70;99.90;;;;;;5076152;28;20404;-60
2021/12/11 10:20:57;;;;;;;41.08;25.27;;;2.50;99.90;;;;;;5071023;28;20672;-60
2021/12/11 10:23:27;;;;;;;48.10;26.55;;;2.30;99.90;;;;;;5073952;28;20127;-60
2021/12/11 10:25:56;;;;;;;71.13;27.10;;;1.80;99.90;;;;;;5071548;28;20048;-60
2021/12/11 10:28:24;;;;;;;51.25;24.85;;;1.70;99.90;;;;;;5070722;28;20109;-60
2021/12/11 10:30:57;;;;;;;61.95;27.52;;;1.70;99.90;;;;;;5071961;28;20048;-60
2021/12/11 10:33:25;;;;;;;53.65;27.08;;;;;;;;;;5063498;28;20029;-60
2021/12/11 10:35:55;;;;;;;49.38;27.42;;;1.60;99.90;;;;;;5079133;28;20059;-59
2021/12/11 10:38:22;;;;;;;46.42;26.98;;;;;;;;;;5072823;28;20042;-60
2021/12/11 10:40:58;;;;;;;45.28;27.67;;;1.70;99.90;;;;;;5074016;28;20052;-60
2021/12/11 10:43:29;;;;;;;44.22;28.30;;;1.70;99.90;;;;;;5067710;28;20069;-59
2021/12/11 10:45:56;;;;;;;47.90;28.67;;;;;;;;;;5072603;28;20117;-58
2021/12/11 10:48:28;;;;;;;43.88;27.13;;;1.80;99.90;;;;;;5076630;28;20048;-59
2021/12/11 10:51:06;;;;;;;39.28;25.40;;;2.00;99.90;;;;;;5072710;28;20047;-58
2021/12/11 10:53:32;;;;;;;43.10;25.95;;;;;;;;;;5065337;28;20037;-58
2021/12/11 10:56:00;;;;;;;39.75;25.08;;;;;;;;;;5078501;28;20501;-56
2021/12/11 10:58:32;;;;;;;37.72;23.95;;;2.20;99.90;;;;;;5070187;28;20043;-54
2021/12/11 11:01:06;;;;;;;33.60;20.63;;;2.40;99.90;;;;;;5073192;28;20046;-53
2021/12/11 11:03:39;;;;;;;36.67;23.67;;;2.10;99.90;;;;;;5072524;28;20731;-57
2021/12/11 11:06:06;;;;;;;37.60;24.55;;;2.20;99.90;;;;;;5071455;28;20440;-56
2021/12/11 11:08:32;;;;;;;100.43;50.60;;;;;;;;;;5062332;28;20094;-54
2021/12/11 11:11:04;;;;;;;54.85;29.65;;;2.30;99.90;;;;;;5061801;28;20044;-55
2021/12/11 11:13:30;;;;;;;57.45;28.80;;;;;;;;;;5075509;28;20501;-55
2021/12/11 11:15:57;;;;;;;39.30;24.00;;;2.30;99.90;;;;;;5075204;28;20496;-55
2021/12/11 11:18:26;;;;;;;41.42;23.42;;;2.80;99.90;;;;;;5077396;28;20032;-55
2021/12/11 11:21:06;;;;;;;35.85;20.85;;;2.50;99.90;;;;;;5076234;28;20142;-52
2021/12/11 11:23:32;;;;;;;36.55;22.13;;;;;;;;;;5065720;28;20044;-56
2021/12/11 11:26:03;;;;;;;40.45;22.13;;;2.50;99.90;;;;;;5070239;28;20036;-53
2021/12/11 11:28:34;;;;;;;30.77;21.38;;;2.60;99.90;;;;;;5075390;28;20048;-52
2021/12/11 11:31:04;;;;;;;30.33;18.83;;;2.50;99.90;;;;;;5065350;28;20072;-53
2021/12/11 11:33:31;;;;;;;32.17;21.20;;;2.40;99.90;;;;;;5070391;28;20035;-51
2021/12/11 11:36:00;;;;;;;31.58;20.13;;;2.30;99.90;;;;;;5076697;28;20035;-51
2021/12/11 11:38:29;;;;;;;33.15;19.77;;;2.40;99.90;;;;;;5070304;28;20032;-54
2021/12/11 11:40:59;;;;;;;29.80;19.73;;;2.50;99.90;;;;;;5071361;28;20555;-56
2021/12/11 11:43:27;;;;;;;27.25;19.38;;;2.30;99.90;;;;;;5071194;28;20044;-52
2021/12/11 11:45:55;;;;;;;30.45;19.45;;;2.50;99.90;;;;;;5076147;28;20067;-55
2021/12/11 11:48:24;;;;;;;33.05;19.75;;;2.40;99.90;;;;;;5071010;28;20051;-51
2021/12/11 11:50:52;;;;;;;30.95;19.55;;;2.30;99.90;;;;;;5070561;28;20045;-51
2021/12/11 11:53:24;;;;;;;26.33;18.80;;;;;;;;;;5076563;28;20250;-52
2021/12/11 11:55:52;;;;;;;;;;;2.30;99.90;;;;;;5076736;28;20165;-54
2021/12/11 11:58:18;;;;;;;28.40;19.83;;;;;;;;;;5090788;28;19931;-55
2021/12/11 12:00:50;;;;;;;28.40;18.88;;;2.20;99.90;;;;;;5068542;28;20102;-53
2021/12/11 12:03:18;;;;;;;33.17;22.37;;;2.10;99.90;;;;;;5066038;28;21516;-56
2021/12/11 12:05:47;;;;;;;30.00;19.30;;;2.30;99.90;;;;;;5075969;28;20306;-55
2021/12/11 12:08:15;;;;;;;29.70;20.05;;;;;;;;;;5074465;28;20044;-54
2021/12/11 12:10:41;;;;;;;33.92;22.58;;;;;;;;;;5080962;28;20089;-53
2021/12/11 12:13:10;;;;;;;36.58;22.75;;;2.20;99.90;;;;;;5073770;28;20047;-51
2021/12/11 12:15:43;;;;;;;39.17;22.77;;;1.60;99.90;;;;;;5073137;28;20032;-55
2021/12/11 12:18:12;;;;;;;35.58;21.95;;;2.60;99.90;;;;;;5080464;28;20040;-56
2021/12/11 12:20:40;;;;;;;33.75;21.40;;;2.50;99.90;;;;;;5068038;28;20032;-57
2021/12/11 12:23:07;;;;;;;37.00;21.60;;;;;;;;;;5075672;28;20032;-56
2021/12/11 12:25:35;;;;;;;32.08;21.17;;;2.60;99.90;;;;;;5078113;28;20096;-55
2021/12/11 12:28:01;;;;;;;37.38;21.83;;;2.60;99.90;;;;;;5071436;28;20138;-57
2021/12/11 12:30:58;;;;;;;35.20;21.90;;;2.60;99.90;;;;;;5067631;28;20089;-58
2021/12/11 12:33:25;;;;;;;35.22;21.63;;;2.40;99.90;;;;;;5072468;28;20047;-58
2021/12/11 12:35:51;;;;;;;34.45;21.80;;;;;;;;;;5074679;28;20571;-57
2021/12/11 12:38:20;;;;;;;35.58;22.15;;;2.70;99.90;;;;;;5075062;28;20158;-57
2021/12/11 12:40:59;;;;;;;46.40;23.40;;;2.60;99.90;;;;;;5073102;28;20512;-55
2021/12/11 12:46:36;;;;;;;38.58;23.17;;;2.90;99.90;;;;;;5072013;28;20056;-56
2021/12/11 12:49:04;;;;;;;38.40;22.55;;;2.80;99.90;;;;;;5074740;28;20318;-55
2021/12/11 12:51:32;;;;;;;32.72;21.10;;;2.90;99.90;;;;;;5077777;28;20102;-57
2021/12/11 12:53:59;;;;;;;36.95;21.70;;;;;;;;;;5075183;28;20055;-57
2021/12/11 12:56:35;;;;;;;35.45;22.20;;;2.90;99.90;;;;;;5072039;28;20043;-55
2021/12/11 12:59:14;;;;;;;36.88;20.90;;;3.10;99.90;;;;;;5073972;28;20040;-54
2021/12/11 13:01:49;;;;;;;34.65;22.20;;;3.10;99.90;;;;;;5070809;28;20043;-58
2021/12/11 13:04:18;;;;;;;29.58;19.67;;;3.10;99.90;;;;;;5075373;28;20123;-58
2021/12/11 13:06:51;;;;;;;30.25;20.35;;;3.00;99.90;;;;;;5077248;28;20039;-57
2021/12/11 13:09:25;;;;;;;33.17;21.27;;;3.10;99.90;;;;;;5072298;28;20081;-56
2021/12/11 13:12:06;;;;;;;33.85;23.17;;;3.30;99.90;;;;;;5074086;28;20705;-56
2021/12/11 13:14:34;;;;;;;34.13;20.02;;;3.30;99.90;;;;;;5074686;28;20060;-57
2021/12/11 13:17:07;;;;;;;31.20;20.42;;;3.40;99.90;;;;;;5072571;28;20055;-56
2021/12/11 13:19:39;;;;;;;32.17;20.83;;;3.20;99.90;;;;;;5074761;28;20040;-56
2021/12/11 13:22:33;;;;;;;34.17;20.15;;;3.40;99.90;;;;;;5077994;28;20488;-56
2021/12/11 13:25:05;;;;;;;29.90;19.15;;;3.40;99.90;;;;;;5067579;28;20048;-56
2021/12/11 13:27:31;;;;;;;26.98;19.77;;;;;;;;;;5070150;28;20123;-57
2021/12/11 13:30:04;;;;;;;29.73;19.65;;;3.50;99.90;;;;;;5069121;28;20040;-57
2021/12/11 13:32:33;;;;;;;33.60;20.73;;;3.40;99.90;;;;;;5068681;28;20150;-57
2021/12/11 13:35:06;;;;;;;32.85;19.25;;;3.20;99.90;;;;;;5074370;28;20115;-56
2021/12/11 13:37:33;;;;;;;30.17;19.73;;;3.40;99.90;;;;;;5074169;28;20516;-55
2021/12/11 13:40:00;;;;;;;35.40;19.98;;;;;;;;;;5077339;28;20040;-56
2021/12/11 13:42:31;;;;;;;36.35;21.48;;;3.20;99.90;;;;;;5075327;28;20050;-57
2021/12/11 13:45:03;;;;;;;32.08;21.40;;;3.10;99.90;;;;;;5076825;28;20086;-58
2021/12/11 13:47:32;;;;;;;38.75;20.92;;;3.10;99.90;;;;;;5066468;28;20505;-56
2021/12/11 13:50:00;;;;;;;34.28;19.83;;;3.00;99.90;;;;;;5073805;28;20052;-57
2021/12/11 13:52:26;;;;;;;37.75;22.00;;;;;;;;;;5074425;28;20548;-58
2021/12/11 13:54:52;;;;;;;34.38;20.83;;;;;;;;;;5078082;28;20044;-57
2021/12/11 13:57:24;;;;;;;37.97;21.38;;;3.00;99.90;;;;;;5070729;28;20039;-58
2021/12/11 13:59:53;;;;;;;34.45;20.63;;;3.10;99.90;;;;;;5062771;28;20115;-58
2021/12/11 14:02:22;;;;;;;35.13;21.73;;;3.00;99.90;;;;;;5073859;28;20036;-58
2021/12/11 14:04:48;;;;;;;35.15;21.98;;;;;;;;;;5071852;28;20048;-57
2021/12/11 14:07:19;;;;;;;37.00;22.27;;;;;;;;;;5075163;28;20070;-57
2021/12/11 14:09:51;;;;;;;35.95;20.63;;;2.90;99.90;;;;;;5069080;28;20174;-58
2021/12/11 14:12:18;;;;;;;;;;;2.90;99.90;;;;;;5069414;28;20076;-58
2021/12/11 14:14:44;;;;;;;35.10;20.80;;;;;;;;;;5071318;28;19977;-58